Time;durP1;ratioP1;P1;durP2;ratioP2;P2;SDS_P1;SDS_P2;PMS_P1;PMS_P2;Temp;Humidity;BMP_temperature;BMP_pressure;BME280_temperature;BME280_humidity;BME280_pressure;Samples;Min_cycle;Max_cycle;Signal;HPM_P1;HPM_P2
2023/07/05 00:00:24;;;;;;;1.83;1.73;;;16.60;99.90;;;;;;5007714;28;20852;-32
2023/07/05 00:02:51;;;;;;;2.92;1.90;;;16.70;99.90;;;;;;5004350;28;20513;-33
2023/07/05 00:05:17;;;;;;;2.50;2.30;;;16.60;99.90;;;;;;5005330;28;20543;-32
2023/07/05 00:07:42;;;;;;;1.83;1.58;;;16.70;99.90;;;;;;5002601;28;20030;-36
2023/07/05 00:10:09;;;;;;;2.63;1.80;;;16.80;99.90;;;;;;5004883;28;20037;-33
2023/07/05 00:12:35;;;;;;;2.75;1.50;;;16.80;99.90;;;;;;5003962;28;20113;-33
2023/07/05 00:15:01;;;;;;;2.55;1.88;;;16.80;99.90;;;;;;5004491;28;20117;-32
2023/07/05 00:17:26;;;;;;;2.35;1.40;;;16.70;99.90;;;;;;5007050;28;20040;-32
2023/07/05 00:19:53;;;;;;;1.60;1.50;;;16.80;99.90;;;;;;5002844;28;20125;-33
2023/07/05 00:22:19;;;;;;;2.10;1.90;;;16.90;99.90;;;;;;5000199;28;20033;-34
2023/07/05 00:24:45;;;;;;;1.85;1.75;;;17.00;99.90;;;;;;5002930;28;20498;-33
2023/07/05 00:27:12;;;;;;;2.10;1.50;;;17.00;99.90;;;;;;5007735;28;20030;-33
2023/07/05 00:29:37;;;;;;;2.20;1.65;;;17.10;99.90;;;;;;5004186;28;20038;-34
2023/07/05 00:32:03;;;;;;;2.47;1.77;;;17.10;99.90;;;;;;5001138;28;20440;-32
2023/07/05 00:34:29;;;;;;;2.45;1.90;;;17.20;99.90;;;;;;5003649;28;20029;-32
2023/07/05 00:36:54;;;;;;;4.07;1.80;;;17.20;99.90;;;;;;5007240;28;20551;-33
2023/07/05 00:39:20;;;;;;;5.88;2.72;;;17.10;99.90;;;;;;5007840;28;20391;-33
2023/07/05 00:41:45;;;;;;;6.13;3.00;;;17.00;99.90;;;;;;5009182;28;20027;-36
2023/07/05 00:44:13;;;;;;;8.07;3.15;;;17.00;99.90;;;;;;5003831;28;20026;-32
2023/07/05 00:46:43;;;;;;;3.97;2.45;;;17.00;99.90;;;;;;5005275;28;20022;-34
2023/07/05 00:49:14;;;;;;;4.80;2.80;;;17.00;99.90;;;;;;5002119;28;20255;-33
2023/07/05 00:51:45;;;;;;;4.22;2.53;;;16.90;99.90;;;;;;5006536;28;20784;-39
2023/07/05 00:54:11;;;;;;;5.03;2.40;;;16.90;99.90;;;;;;5003747;28;20026;-33
2023/07/05 00:57:06;;;;;;;3.75;2.40;;;16.80;99.90;;;;;;5006233;28;20025;-33
2023/07/05 00:59:37;;;;;;;3.30;2.72;;;16.60;99.90;;;;;;5001381;28;20049;-32
2023/07/05 01:02:03;;;;;;;5.63;2.90;;;16.40;99.90;;;;;;5005099;28;20069;-41
2023/07/05 01:04:33;;;;;;;4.07;2.60;;;16.30;99.90;;;;;;5006971;28;20026;-41
2023/07/05 01:06:58;;;;;;;3.38;2.72;;;16.30;99.90;;;;;;5002298;28;20411;-40
2023/07/05 01:09:26;;;;;;;3.67;2.55;;;16.40;99.90;;;;;;5000874;28;20022;-41
2023/07/05 01:12:29;;;;;;;4.20;2.50;;;16.40;99.90;;;;;;5003676;28;20045;-41
2023/07/05 01:15:18;;;;;;;3.35;2.67;;;16.60;99.90;;;;;;4995692;28;20046;-41
2023/07/05 01:18:03;;;;;;;3.42;2.50;;;16.50;99.90;;;;;;5000761;28;20022;-41
2023/07/05 01:20:47;;;;;;;3.60;2.50;;;16.40;99.90;;;;;;4990353;28;20084;-39
2023/07/05 01:23:31;;;;;;;4.63;2.80;;;16.50;99.90;;;;;;5000049;28;20026;-37
2023/07/05 01:26:29;;;;;;;3.13;2.60;;;16.50;99.90;;;;;;5007984;28;20490;-41
2023/07/05 01:29:30;;;;;;;3.15;2.30;;;16.50;99.90;;;;;;5000535;28;20030;-42
2023/07/05 01:32:19;;;;;;;3.05;2.60;;;16.50;99.90;;;;;;4999525;28;20042;-41
2023/07/05 01:35:12;;;;;;;4.20;2.40;;;16.50;99.90;;;;;;5004837;28;20030;-41
2023/07/05 01:37:43;;;;;;;3.63;2.60;;;16.30;99.90;;;;;;5003199;28;20029;-41
2023/07/05 01:40:21;;;;;;;4.00;2.50;;;16.20;99.90;;;;;;4998936;28;20069;-41
2023/07/05 01:42:56;;;;;;;3.20;2.33;;;16.20;99.90;;;;;;5005739;28;20026;-40
2023/07/05 01:45:30;;;;;;;2.75;2.40;;;16.10;99.90;;;;;;5000853;28;20083;-39
2023/07/05 01:48:03;;;;;;;3.55;2.40;;;16.20;99.90;;;;;;5001262;28;20484;-41
2023/07/05 01:50:59;;;;;;;4.03;2.53;;;16.20;99.90;;;;;;5003095;28;20037;-41
2023/07/05 01:53:33;;;;;;;2.22;2.00;;;16.30;99.90;;;;;;5002559;28;20050;-40
2023/07/05 01:56:13;;;;;;;4.55;2.33;;;16.30;99.90;;;;;;5001736;28;20038;-41
2023/07/05 01:58:45;;;;;;;3.33;2.35;;;16.30;99.90;;;;;;5002877;28;20037;-40
2023/07/05 02:01:14;;;;;;;4.90;3.25;;;16.40;99.90;;;;;;4980923;28;20670;-37
2023/07/05 02:03:41;;;;;;;3.60;2.50;;;16.40;99.90;;;;;;5003935;28;20030;-38
2023/07/05 02:06:08;;;;;;;4.03;2.53;;;16.40;99.90;;;;;;5002356;28;20038;-37
2023/07/05 02:08:39;;;;;;;5.85;2.90;;;16.40;99.90;;;;;;5003765;28;20029;-38
2023/07/05 02:11:05;;;;;;;4.65;2.42;;;16.40;99.90;;;;;;4984389;28;20022;-33
2023/07/05 02:13:31;;;;;;;3.65;2.53;;;16.40;99.90;;;;;;4999246;28;20044;-33
2023/07/05 02:15:57;;;;;;;3.05;2.38;;;16.40;99.90;;;;;;5001862;28;20037;-34
2023/07/05 02:18:22;;;;;;;4.80;2.20;;;16.30;99.90;;;;;;4997553;28;20400;-36
2023/07/05 02:20:48;;;;;;;5.65;2.72;;;16.30;99.90;;;;;;4988314;28;20119;-33
2023/07/05 02:23:13;;;;;;;3.50;2.28;;;16.30;99.90;;;;;;5003777;28;20034;-32
2023/07/05 02:25:40;;;;;;;3.05;2.75;;;16.30;99.90;;;;;;5003174;28;20018;-32
2023/07/05 02:28:07;;;;;;;3.60;2.20;;;16.30;99.90;;;;;;5004863;28;20029;-32
2023/07/05 02:30:40;;;;;;;4.10;2.47;;;16.20;99.90;;;;;;5000894;28;20037;-33
2023/07/05 02:33:06;;;;;;;3.60;2.70;;;16.10;99.90;;;;;;5004839;28;20053;-33
2023/07/05 02:35:36;;;;;;;3.03;2.30;;;16.10;99.90;;;;;;4989808;28;20027;-33
2023/07/05 02:38:03;;;;;;;3.35;2.20;;;16.00;99.90;;;;;;5002646;28;20427;-34
2023/07/05 02:40:28;;;;;;;3.17;2.40;;;16.00;99.90;;;;;;4997770;28;20038;-32
2023/07/05 02:42:54;;;;;;;3.15;2.30;;;16.00;99.90;;;;;;5003057;28;20054;-32
2023/07/05 02:45:20;;;;;;;3.58;2.17;;;16.10;99.90;;;;;;5001305;28;20448;-32
2023/07/05 02:47:45;;;;;;;2.78;1.95;;;16.00;99.90;;;;;;5001847;28;20029;-33
2023/07/05 02:50:14;;;;;;;2.55;1.98;;;16.00;99.90;;;;;;5000650;28;20451;-34
2023/07/05 02:52:40;;;;;;;5.38;2.10;;;16.00;99.90;;;;;;5001288;28;20033;-33
2023/07/05 02:55:06;;;;;;;5.32;1.92;;;15.90;99.90;;;;;;4996672;28;20124;-33
2023/07/05 02:57:32;;;;;;;4.18;2.20;;;15.90;99.90;;;;;;5001577;28;20582;-33
2023/07/05 02:59:57;;;;;;;3.45;2.08;;;15.80;99.90;;;;;;5000481;28;20123;-35
2023/07/05 03:02:23;;;;;;;2.38;1.75;;;15.90;99.90;;;;;;5004735;28;20554;-34
2023/07/05 03:04:48;;;;;;;3.42;2.10;;;16.00;99.90;;;;;;5000922;28;20538;-33
2023/07/05 03:07:14;;;;;;;3.70;1.88;;;16.00;99.90;;;;;;4999325;28;20478;-34
2023/07/05 03:09:40;;;;;;;3.85;1.95;;;15.90;99.90;;;;;;4997906;28;20026;-32
2023/07/05 03:12:06;;;;;;;3.10;2.13;;;15.90;99.90;;;;;;5001084;28;20033;-33
2023/07/05 03:14:31;;;;;;;5.13;1.80;;;15.90;99.90;;;;;;5000921;28;20074;-32
2023/07/05 03:16:57;;;;;;;3.30;2.08;;;15.90;99.90;;;;;;5005499;28;20061;-32
2023/07/05 03:19:22;;;;;;;3.53;2.10;;;15.80;99.90;;;;;;5005540;28;20041;-39
2023/07/05 03:21:48;;;;;;;3.35;2.20;;;15.90;99.90;;;;;;5003637;28;20602;-36
2023/07/05 03:24:14;;;;;;;3.97;2.30;;;15.90;99.90;;;;;;5006663;28;20068;-41
2023/07/05 03:26:39;;;;;;;2.50;2.30;;;15.70;99.90;;;;;;5001706;28;20373;-41
2023/07/05 03:29:05;;;;;;;6.90;2.28;;;15.70;99.90;;;;;;5003951;28;20056;-42
2023/07/05 03:31:31;;;;;;;3.45;2.20;;;15.70;99.90;;;;;;5003485;28;20523;-39
2023/07/05 03:33:57;;;;;;;2.42;2.20;;;15.60;99.90;;;;;;5004004;28;20037;-41
2023/07/05 03:36:23;;;;;;;3.55;2.60;;;15.60;99.90;;;;;;5001145;28;20026;-40
2023/07/05 03:38:50;;;;;;;7.43;2.50;;;15.60;99.90;;;;;;5000413;28;20095;-41
2023/07/05 03:41:19;;;;;;;3.00;2.75;;;15.60;99.90;;;;;;5001546;28;20112;-42
2023/07/05 03:43:46;;;;;;;2.63;2.33;;;15.60;99.90;;;;;;5001032;28;20030;-41
2023/07/05 03:46:13;;;;;;;5.38;2.63;;;15.60;99.90;;;;;;5001767;28;20034;-42
2023/07/05 03:48:42;;;;;;;2.80;2.30;;;15.60;99.90;;;;;;5000274;28;20506;-41
2023/07/05 03:51:10;;;;;;;8.65;2.55;;;15.60;99.90;;;;;;4999986;28;20076;-39
2023/07/05 03:53:35;;;;;;;4.53;2.70;;;15.60;99.90;;;;;;4998484;28;20560;-40
2023/07/05 03:56:04;;;;;;;4.05;2.28;;;15.60;99.90;;;;;;5001744;28;20134;-39
2023/07/05 03:58:30;;;;;;;3.00;2.50;;;15.60;99.90;;;;;;4998898;28;20113;-40
2023/07/05 04:01:08;;;;;;;3.92;2.20;;;15.60;99.90;;;;;;5000146;28;20121;-41
2023/07/05 04:03:35;;;;;;;4.00;2.38;;;15.60;99.90;;;;;;4999216;28;20037;-39
2023/07/05 04:06:02;;;;;;;2.97;2.70;;;15.60;99.90;;;;;;5004017;28;20038;-42
2023/07/05 04:08:28;;;;;;;2.58;2.20;;;15.70;99.90;;;;;;5000778;28;20056;-39
2023/07/05 04:10:53;;;;;;;4.05;2.50;;;15.70;99.90;;;;;;5003795;28;20026;-40
2023/07/05 04:13:19;;;;;;;5.68;2.60;;;15.80;99.90;;;;;;5002865;28;20077;-40
2023/07/05 04:15:45;;;;;;;3.45;2.42;;;15.80;99.90;;;;;;5004637;28;20026;-42
2023/07/05 04:18:10;;;;;;;3.45;2.45;;;15.90;99.90;;;;;;5002701;28;20026;-40
2023/07/05 04:20:37;;;;;;;3.55;2.65;;;16.00;99.90;;;;;;4999515;28;20035;-41
2023/07/05 04:23:02;;;;;;;3.40;2.58;;;16.10;99.90;;;;;;5005184;28;20117;-37
2023/07/05 04:25:28;;;;;;;9.27;3.47;;;16.10;99.90;;;;;;5003797;28;20663;-41
2023/07/05 04:27:54;;;;;;;5.53;2.63;;;16.10;99.90;;;;;;5009636;28;20034;-41
2023/07/05 04:30:19;;;;;;;3.20;2.90;;;16.10;99.90;;;;;;5008676;28;20846;-42
2023/07/05 04:32:45;;;;;;;3.60;2.63;;;16.10;99.90;;;;;;5005107;28;20073;-41
2023/07/05 04:35:10;;;;;;;4.50;3.00;;;16.10;99.90;;;;;;5001473;28;20030;-38
2023/07/05 04:37:36;;;;;;;5.70;3.10;;;16.00;99.90;;;;;;5009170;28;20081;-41
2023/07/05 04:40:03;;;;;;;3.13;2.75;;;16.00;99.90;;;;;;5004163;28;20488;-40
2023/07/05 04:42:29;;;;;;;3.38;2.55;;;15.90;99.90;;;;;;5003934;28;20065;-40
2023/07/05 04:44:54;;;;;;;3.88;3.05;;;15.90;99.90;;;;;;5005372;28;20535;-39
2023/07/05 04:47:20;;;;;;;3.25;2.95;;;15.90;99.90;;;;;;5004228;28;20026;-41
2023/07/05 04:49:46;;;;;;;3.38;2.67;;;15.90;99.90;;;;;;4985712;28;20022;-42
2023/07/05 04:52:12;;;;;;;4.80;2.83;;;15.90;99.90;;;;;;5007586;28;20026;-41
2023/07/05 04:54:38;;;;;;;3.33;2.08;;;16.00;99.90;;;;;;5004403;28;20022;-38
2023/07/05 04:57:04;;;;;;;4.75;2.38;;;15.90;99.90;;;;;;5005115;28;20026;-43
2023/07/05 04:59:30;;;;;;;3.40;2.20;;;15.80;99.90;;;;;;5003163;28;20065;-41
2023/07/05 05:01:56;;;;;;;4.70;2.20;;;15.80;99.90;;;;;;5004547;28;20045;-38
2023/07/05 05:04:21;;;;;;;7.25;2.40;;;15.80;99.90;;;;;;5001712;28;20125;-40
2023/07/05 05:06:47;;;;;;;5.90;2.50;;;15.80;99.90;;;;;;5003046;28;20051;-38
2023/07/05 05:09:13;;;;;;;3.33;2.20;;;15.90;99.90;;;;;;5004686;28;20389;-41
2023/07/05 05:11:38;;;;;;;3.55;2.00;;;15.90;99.90;;;;;;5002687;28;20034;-41
2023/07/05 05:14:04;;;;;;;3.42;2.15;;;15.90;99.90;;;;;;5004054;28;20474;-41
2023/07/05 05:16:30;;;;;;;3.60;2.22;;;15.90;99.90;;;;;;4996174;28;20034;-37
2023/07/05 05:18:55;;;;;;;3.30;2.13;;;16.00;99.90;;;;;;4995474;28;20026;-41
2023/07/05 05:21:21;;;;;;;2.65;2.28;;;16.10;99.90;;;;;;5003377;28;20755;-36
2023/07/05 05:23:46;;;;;;;3.85;2.30;;;16.10;99.90;;;;;;5003096;28;20026;-41
2023/07/05 05:26:12;;;;;;;4.90;2.85;;;16.10;99.90;;;;;;5004292;28;20043;-42
2023/07/05 05:28:37;;;;;;;3.05;2.50;;;16.20;99.90;;;;;;4999577;28;20487;-40
2023/07/05 05:31:05;;;;;;;4.95;2.72;;;16.10;99.90;;;;;;5002602;28;20030;-42
2023/07/05 05:33:31;;;;;;;3.53;2.40;;;16.10;99.90;;;;;;5003686;28;20149;-39
2023/07/05 05:35:57;;;;;;;2.97;2.22;;;16.20;99.90;;;;;;4994630;28;21810;-40
2023/07/05 05:38:22;;;;;;;3.60;2.80;;;16.30;99.90;;;;;;5003091;28;20022;-38
2023/07/05 05:40:51;;;;;;;3.22;2.00;;;16.40;99.90;;;;;;5005529;28;20030;-33
2023/07/05 05:43:18;;;;;;;3.42;2.50;;;16.40;99.90;;;;;;5002066;28;20059;-33
2023/07/05 05:45:43;;;;;;;4.00;2.00;;;16.50;99.90;;;;;;5000388;28;20038;-33
2023/07/05 05:48:09;;;;;;;5.40;2.45;;;16.60;99.90;;;;;;5004110;28;20034;-34
2023/07/05 05:50:35;;;;;;;5.43;2.63;;;16.60;99.90;;;;;;5003252;28;20018;-35
2023/07/05 05:53:02;;;;;;;4.38;2.40;;;16.70;99.90;;;;;;5005369;28;20036;-33
2023/07/05 05:55:27;;;;;;;3.35;2.53;;;16.60;99.90;;;;;;5006475;28;20033;-32
2023/07/05 05:57:53;;;;;;;3.83;2.45;;;16.70;99.90;;;;;;5002534;28;20053;-34
2023/07/05 06:00:19;;;;;;;4.90;2.30;;;16.80;99.90;;;;;;4988160;28;20054;-32
2023/07/05 06:02:45;;;;;;;3.78;2.50;;;16.90;99.90;;;;;;5002314;28;20109;-33
2023/07/05 06:05:11;;;;;;;3.97;2.75;;;17.00;99.90;;;;;;5003151;28;20033;-36
2023/07/05 06:07:37;;;;;;;2.67;2.40;;;17.00;99.90;;;;;;5002690;28;20025;-35
2023/07/05 06:10:03;;;;;;;5.97;2.42;;;17.00;99.90;;;;;;5003088;28;20030;-32
2023/07/05 06:12:29;;;;;;;2.88;2.35;;;17.00;99.90;;;;;;4999535;28;20153;-33
2023/07/05 06:14:54;;;;;;;3.10;2.25;;;17.00;99.90;;;;;;4999854;28;20527;-34
2023/07/05 06:17:20;;;;;;;4.43;2.55;;;17.00;99.90;;;;;;5002327;28;20029;-34
2023/07/05 06:19:46;;;;;;;3.88;2.58;;;17.00;99.90;;;;;;5000508;28;20373;-33
2023/07/05 06:22:11;;;;;;;3.20;2.40;;;17.00;99.90;;;;;;5002361;28;20356;-32
2023/07/05 06:24:37;;;;;;;4.60;2.65;;;17.10;99.90;;;;;;5001841;28;20492;-34
2023/07/05 06:27:03;;;;;;;3.05;2.50;;;17.20;99.90;;;;;;5000331;28;21522;-33
2023/07/05 06:29:28;;;;;;;3.28;2.17;;;17.50;99.90;;;;;;5000839;28;20025;-33
2023/07/05 06:31:54;;;;;;;27.15;4.72;;;17.60;99.90;;;;;;5001359;28;20053;-33
2023/07/05 06:34:19;;;;;;;9.60;2.30;;;17.70;99.90;;;;;;5004908;28;20034;-34
2023/07/05 06:36:45;;;;;;;3.75;2.33;;;17.80;99.90;;;;;;5002763;28;20026;-32
2023/07/05 06:39:11;;;;;;;2.80;2.35;;;17.80;99.90;;;;;;4999526;28;20503;-32
2023/07/05 06:41:36;;;;;;;3.67;2.13;;;18.10;99.90;;;;;;5006508;28;20030;-33
2023/07/05 06:44:02;;;;;;;3.55;2.17;;;18.20;99.90;;;;;;5001915;28;20027;-35
2023/07/05 06:46:27;;;;;;;3.67;2.28;;;18.40;99.90;;;;;;4997786;28;20026;-35
2023/07/05 06:48:53;;;;;;;2.38;2.08;;;18.70;99.90;;;;;;5007341;28;20389;-33
2023/07/05 06:51:19;;;;;;;3.95;2.10;;;18.90;99.90;;;;;;5005567;28;20403;-31
2023/07/05 06:53:44;;;;;;;5.40;2.13;;;18.70;99.90;;;;;;5003581;28;20030;-34
2023/07/05 06:56:10;;;;;;;2.83;2.03;;;18.60;99.90;;;;;;5005432;28;20037;-31
2023/07/05 06:58:36;;;;;;;4.18;2.20;;;18.50;99.90;;;;;;5005639;28;20030;-33
2023/07/05 07:01:03;;;;;;;2.92;1.92;;;18.50;99.90;;;;;;5000441;28;20061;-32
2023/07/05 07:03:28;;;;;;;3.20;2.10;;;18.50;99.90;;;;;;5003333;28;20396;-35
2023/07/05 07:05:56;;;;;;;2.80;2.20;;;18.60;99.90;;;;;;5005132;28;20030;-32
2023/07/05 07:08:28;;;;;;;2.38;1.73;;;18.50;99.90;;;;;;5005003;28;20073;-34
2023/07/05 07:10:54;;;;;;;2.28;1.92;;;18.50;99.90;;;;;;5007197;28;20484;-31
2023/07/05 07:13:19;;;;;;;4.75;2.30;;;18.70;99.90;;;;;;5003599;28;20021;-31
2023/07/05 07:15:45;;;;;;;2.33;1.83;;;18.90;99.90;;;;;;4999124;28;20058;-31
2023/07/05 07:18:10;;;;;;;3.80;2.10;;;19.10;99.90;;;;;;5004878;28;20025;-33
2023/07/05 07:20:36;;;;;;;2.35;1.75;;;19.20;99.90;;;;;;5002588;28;20033;-31
2023/07/05 07:23:02;;;;;;;3.47;2.00;;;19.30;99.90;;;;;;5001475;28;20018;-31
2023/07/05 07:25:28;;;;;;;2.72;1.70;;;19.40;99.90;;;;;;5005833;28;20380;-31
2023/07/05 07:27:54;;;;;;;4.20;2.03;;;19.50;99.90;;;;;;4999586;28;20030;-30
2023/07/05 07:30:19;;;;;;;2.55;1.85;;;19.70;99.90;;;;;;4996364;28;20029;-31
2023/07/05 07:32:46;;;;;;;3.20;1.77;;;19.70;99.90;;;;;;5001072;28;20423;-31
2023/07/05 07:35:12;;;;;;;2.22;2.03;;;19.80;99.90;;;;;;5010218;28;20077;-38
2023/07/05 07:37:38;;;;;;;2.53;1.90;;;19.90;99.90;;;;;;5002613;28;20026;-32
2023/07/05 07:40:06;;;;;;;3.15;1.85;;;19.90;99.90;;;;;;4999059;28;20026;-32
2023/07/05 07:42:31;;;;;;;;;;;20.00;99.90;;;;;;5008851;28;20025;-31
2023/07/05 07:44:57;;;;;;;2.15;1.80;;;20.20;99.90;;;;;;5002653;28;19913;-32
2023/07/05 07:47:22;;;;;;;2.63;1.80;;;20.50;99.90;;;;;;5006185;28;20391;-34
2023/07/05 07:49:48;;;;;;;2.63;1.83;;;20.70;99.90;;;;;;5001398;28;20795;-31
2023/07/05 07:52:15;;;;;;;2.03;1.67;;;20.90;99.90;;;;;;5000981;28;20030;-31
2023/07/05 07:54:42;;;;;;;4.15;2.08;;;21.20;99.90;;;;;;5002198;28;20034;-31
2023/07/05 07:57:07;;;;;;;3.20;1.70;;;21.40;99.90;;;;;;5001375;28;20022;-34
2023/07/05 07:59:35;;;;;;;2.88;2.05;;;21.40;99.90;;;;;;5001956;28;20563;-34
2023/07/05 08:02:02;;;;;;;2.38;1.60;;;21.60;99.90;;;;;;5003240;28;20046;-33
2023/07/05 08:04:28;;;;;;;3.60;2.22;;;21.60;99.90;;;;;;5004017;28;20037;-32
2023/07/05 08:06:54;;;;;;;2.22;1.70;;;21.70;99.90;;;;;;5002763;28;20117;-33
2023/07/05 08:09:27;;;;;;;4.47;2.08;;;21.80;99.90;;;;;;5003380;28;20121;-33
2023/07/05 08:11:55;;;;;;;2.30;1.98;;;21.80;99.90;;;;;;5001424;28;20026;-33
2023/07/05 08:14:20;;;;;;;3.38;2.20;;;21.70;99.90;;;;;;5004828;28;20022;-32
2023/07/05 08:16:46;;;;;;;3.38;2.15;;;21.80;99.90;;;;;;5007122;28;20507;-32
2023/07/05 08:19:13;;;;;;;2.95;1.90;;;21.90;99.90;;;;;;5003027;28;20030;-32
2023/07/05 08:21:38;;;;;;;3.25;2.03;;;22.00;99.90;;;;;;5000425;28;20044;-32
2023/07/05 08:24:05;;;;;;;2.70;2.40;;;22.00;99.90;;;;;;5008706;28;20037;-32
2023/07/05 08:26:30;;;;;;;3.17;2.38;;;22.10;99.90;;;;;;5004667;28;20029;-32
2023/07/05 08:28:57;;;;;;;4.75;2.10;;;22.10;99.90;;;;;;5006865;28;20030;-32
2023/07/05 08:31:23;;;;;;;2.58;2.00;;;22.20;99.90;;;;;;5002643;28;20034;-34
2023/07/05 08:33:49;;;;;;;2.42;1.90;;;22.30;99.90;;;;;;5005500;28;20366;-35
2023/07/05 08:36:14;;;;;;;1.90;1.80;;;22.30;99.90;;;;;;5007695;28;20040;-35
2023/07/05 08:38:49;;;;;;;2.22;1.92;;;22.50;99.90;;;;;;5002086;28;20036;-33
2023/07/05 08:41:35;;;;;;;2.78;1.98;;;22.60;99.90;;;;;;5003751;28;20108;-31
2023/07/05 08:44:23;;;;;;;3.97;1.83;;;22.70;99.90;;;;;;5003246;28;20538;-35
2023/07/05 08:47:19;;;;;;;2.45;1.80;;;22.40;99.90;;;;;;5000321;28;20061;-32
2023/07/05 08:49:59;;;;;;;4.05;1.80;;;22.10;99.90;;;;;;5003433;28;20088;-31
2023/07/05 08:52:30;;;;;;;2.08;1.60;;;21.90;99.90;;;;;;4980901;28;20030;-32
2023/07/05 08:55:03;;;;;;;2.92;1.90;;;21.80;99.90;;;;;;5004872;28;20393;-32
2023/07/05 08:57:53;;;;;;;2.40;1.90;;;21.90;99.90;;;;;;5002162;28;20034;-33
2023/07/05 09:00:32;;;;;;;1.92;1.67;;;22.00;99.90;;;;;;4996001;28;20602;-32
2023/07/05 09:02:57;;;;;;;3.08;2.00;;;21.70;99.90;;;;;;5000682;28;20105;-34
2023/07/05 09:05:33;;;;;;;2.03;1.60;;;21.60;99.90;;;;;;4983899;28;20018;-36
2023/07/05 09:08:18;;;;;;;1.88;1.60;;;21.70;99.90;;;;;;5002333;28;20487;-35
2023/07/05 09:10:50;;;;;;;3.17;2.20;;;22.20;99.90;;;;;;5000643;28;20062;-38
2023/07/05 09:13:31;;;;;;;2.05;1.75;;;22.60;99.90;;;;;;5004050;28;20025;-39
2023/07/05 09:16:22;;;;;;;3.63;1.80;;;22.20;99.90;;;;;;4988616;28;20046;-36
2023/07/05 09:19:18;;;;;;;3.63;1.80;;;22.50;99.90;;;;;;5004923;28;20045;-38
2023/07/05 09:21:53;;;;;;;3.70;2.10;;;22.60;99.90;;;;;;5004518;28;20037;-41
2023/07/05 09:24:30;;;;;;;4.45;2.08;;;23.00;99.90;;;;;;5000915;28;20038;-42
2023/07/05 09:27:00;;;;;;;2.15;1.42;;;23.30;99.90;;;;;;5004877;28;20022;-39
2023/07/05 09:29:31;;;;;;;3.47;1.95;;;23.50;99.90;;;;;;5003938;28;20100;-41
2023/07/05 09:32:02;;;;;;;3.30;1.90;;;23.20;99.90;;;;;;5002760;28;20030;-41
2023/07/05 09:34:48;;;;;;;3.25;1.75;;;23.10;99.90;;;;;;5000831;28;20133;-41
2023/07/05 09:37:41;;;;;;;5.95;1.90;;;23.10;99.90;;;;;;5002012;28;20121;-36
2023/07/05 09:40:20;;;;;;;3.75;1.90;;;23.10;99.90;;;;;;4999667;28;20461;-41
2023/07/05 09:43:19;;;;;;;2.53;1.65;;;23.20;99.90;;;;;;5001577;28;20022;-41
2023/07/05 09:45:45;;;;;;;2.65;1.63;;;23.20;99.90;;;;;;4984134;28;20405;-41
2023/07/05 09:48:12;;;;;;;2.40;1.60;;;23.30;99.90;;;;;;5000150;28;20058;-41
2023/07/05 09:50:45;;;;;;;2.35;1.92;;;23.10;99.90;;;;;;5005044;28;20092;-40
2023/07/05 09:53:40;;;;;;;4.65;2.15;;;22.90;99.90;;;;;;4998230;28;20034;-36
2023/07/05 09:56:17;;;;;;;1.90;1.70;;;22.80;99.90;;;;;;4998469;28;20088;-40
2023/07/05 09:58:44;;;;;;;3.40;2.00;;;22.90;99.90;;;;;;5000290;28;20030;-40
2023/07/05 10:01:18;;;;;;;2.28;1.90;;;22.80;99.90;;;;;;4996662;28;20046;-41
2023/07/05 10:03:54;;;;;;;2.33;1.77;;;22.70;99.90;;;;;;4998213;28;20030;-36
2023/07/05 10:06:24;;;;;;;4.22;1.98;;;22.40;99.90;;;;;;5005871;28;20373;-38
2023/07/05 10:08:52;;;;;;;2.90;1.70;;;22.50;99.90;;;;;;5005087;28;20030;-39
2023/07/05 10:11:26;;;;;;;;;;;22.60;99.90;;;;;;5005979;28;20136;-41
2023/07/05 10:14:07;;;;;;;4.05;1.60;;;22.70;99.90;;;;;;5006905;28;19931;-40
2023/07/05 10:17:09;;;;;;;2.88;1.90;;;22.60;99.90;;;;;;5003584;28;20137;-41
2023/07/05 10:19:51;;;;;;;2.50;1.65;;;22.60;99.90;;;;;;5005444;28;20387;-38
2023/07/05 10:22:28;;;;;;;4.13;2.03;;;22.50;99.90;;;;;;5002408;28;20482;-38
2023/07/05 10:25:19;;;;;;;3.22;1.90;;;22.50;99.90;;;;;;5001093;28;20030;-38
2023/07/05 10:27:48;;;;;;;1.67;1.30;;;22.00;99.90;;;;;;4998281;28;20026;-41
2023/07/05 10:30:20;;;;;;;1.27;1.00;;;21.20;99.90;;;;;;5002180;28;20042;-40
2023/07/05 10:32:49;;;;;;;1.15;1.05;;;20.70;99.90;;;;;;5004434;28;20034;-41
2023/07/05 10:35:28;;;;;;;0.80;0.80;;;20.30;99.90;;;;;;4999878;28;20065;-37
2023/07/05 10:37:54;;;;;;;1.45;0.85;;;20.20;99.90;;;;;;5001447;28;20017;-41
2023/07/05 10:40:22;;;;;;;1.15;0.90;;;20.20;99.90;;;;;;5001884;28;20052;-38
2023/07/05 10:42:51;;;;;;;1.20;1.10;;;20.10;99.90;;;;;;5004000;28;20036;-40
2023/07/05 10:45:21;;;;;;;1.17;1.00;;;20.00;99.90;;;;;;5001109;28;20399;-42
2023/07/05 10:47:51;;;;;;;1.35;0.70;;;20.20;99.90;;;;;;5001941;28;20026;-41
2023/07/05 10:50:33;;;;;;;1.27;0.75;;;20.10;99.90;;;;;;5000407;28;20022;-41
2023/07/05 10:53:03;;;;;;;1.85;0.80;;;20.20;99.90;;;;;;5001555;28;20034;-38
2023/07/05 10:55:44;;;;;;;1.60;1.00;;;20.50;99.90;;;;;;5001948;28;20522;-41
2023/07/05 10:58:16;;;;;;;1.17;0.60;;;20.40;99.90;;;;;;5002570;28;20033;-40
2023/07/05 11:00:51;;;;;;;0.82;0.70;;;20.60;99.90;;;;;;5004947;28;20050;-41
2023/07/05 11:03:34;;;;;;;1.38;0.73;;;21.10;99.90;;;;;;5006159;28;20033;-41
2023/07/05 11:06:03;;;;;;;0.98;0.82;;;21.20;99.90;;;;;;5004873;28;20112;-41
2023/07/05 11:08:34;;;;;;;1.63;0.90;;;21.10;99.90;;;;;;5003064;28;20041;-41
2023/07/05 11:11:03;;;;;;;1.10;0.80;;;21.00;99.90;;;;;;5004304;28;20038;-39
2023/07/05 11:13:30;;;;;;;1.65;1.17;;;21.20;99.90;;;;;;5002705;28;20484;-41
2023/07/05 11:15:56;;;;;;;1.10;1.00;;;21.60;99.90;;;;;;5002750;28;20084;-41
2023/07/05 11:18:23;;;;;;;0.77;0.70;;;21.90;99.90;;;;;;4997033;28;20033;-42
2023/07/05 11:20:54;;;;;;;1.25;0.95;;;21.80;99.90;;;;;;4996218;28;20026;-41
2023/07/05 11:23:43;;;;;;;1.10;1.00;;;21.40;99.90;;;;;;4999306;28;20034;-41
2023/07/05 11:26:09;;;;;;;0.85;0.82;;;21.30;99.90;;;;;;4975004;28;20114;-41
2023/07/05 11:28:41;;;;;;;1.23;0.90;;;21.10;99.90;;;;;;5003415;28;20032;-42
2023/07/05 11:31:27;;;;;;;1.85;0.90;;;21.20;99.90;;;;;;5000031;28;20036;-37
2023/07/05 11:34:20;;;;;;;0.80;0.60;;;21.40;99.90;;;;;;5002144;28;20043;-40
2023/07/05 11:37:01;;;;;;;1.02;0.80;;;21.40;99.90;;;;;;5004265;28;20032;-40
2023/07/05 11:39:37;;;;;;;0.70;0.70;;;21.40;99.90;;;;;;5005879;28;20033;-35
2023/07/05 11:42:26;;;;;;;1.05;0.60;;;21.40;99.90;;;;;;5005464;28;20522;-41
2023/07/05 11:45:04;;;;;;;0.75;0.70;;;21.10;99.90;;;;;;5006120;28;20117;-41
2023/07/05 11:47:32;;;;;;;0.80;0.80;;;20.80;99.90;;;;;;5004203;28;20414;-41
2023/07/05 11:50:05;;;;;;;0.65;0.65;;;20.80;99.90;;;;;;5007935;28;20443;-40
2023/07/05 11:52:33;;;;;;;1.27;0.60;;;21.10;99.90;;;;;;5007172;28;20033;-41
2023/07/05 11:55:15;;;;;;;1.38;0.77;;;21.50;99.90;;;;;;5006470;28;20037;-41
2023/07/05 11:57:51;;;;;;;0.70;0.70;;;21.70;99.90;;;;;;5008680;28;20060;-39
2023/07/05 12:00:22;;;;;;;1.85;0.80;;;21.50;99.90;;;;;;5008162;28;20049;-41
2023/07/05 12:03:02;;;;;;;0.98;0.90;;;21.30;99.90;;;;;;5004879;28;20041;-41
2023/07/05 12:05:32;;;;;;;1.05;0.77;;;21.40;99.90;;;;;;5006609;28;20072;-39
2023/07/05 12:08:11;;;;;;;0.60;0.60;;;21.50;99.90;;;;;;5001663;28;20034;-41
2023/07/05 12:10:37;;;;;;;0.90;0.90;;;21.40;99.90;;;;;;5004848;28;20026;-39
2023/07/05 12:13:06;;;;;;;1.00;1.00;;;21.20;99.90;;;;;;5003375;28;20033;-39
2023/07/05 12:15:36;;;;;;;1.05;0.80;;;21.30;99.90;;;;;;5004231;28;20451;-40
2023/07/05 12:18:02;;;;;;;4.53;0.80;;;21.80;99.90;;;;;;5005723;28;20038;-37
2023/07/05 12:20:34;;;;;;;1.73;0.80;;;21.90;99.90;;;;;;5002879;28;20042;-41
2023/07/05 12:23:00;;;;;;;2.05;0.98;;;22.40;99.90;;;;;;4987525;28;20041;-38
2023/07/05 12:25:27;;;;;;;0.70;0.70;;;22.70;99.90;;;;;;5004262;28;20041;-41
2023/07/05 12:27:53;;;;;;;1.05;0.85;;;22.60;99.90;;;;;;5003708;28;20018;-40
2023/07/05 12:30:21;;;;;;;0.95;0.95;;;22.20;99.90;;;;;;5006686;28;20076;-39
2023/07/05 12:32:52;;;;;;;1.42;0.95;;;21.70;99.90;;;;;;5004745;28;20030;-41
2023/07/05 12:35:23;;;;;;;1.10;0.98;;;21.60;99.90;;;;;;5003460;28;20076;-39
2023/07/05 12:37:51;;;;;;;2.17;1.00;;;21.90;99.90;;;;;;4998618;28;20031;-40
2023/07/05 12:40:20;;;;;;;1.10;1.00;;;21.70;99.90;;;;;;5006558;28;20590;-38
2023/07/05 12:42:48;;;;;;;1.55;1.10;;;21.40;99.90;;;;;;5005762;28;20065;-40
2023/07/05 12:45:21;;;;;;;4.00;1.20;;;21.20;99.90;;;;;;5002452;28;20480;-40
2023/07/05 12:47:47;;;;;;;2.20;1.10;;;21.10;99.90;;;;;;5007374;28;20459;-41
2023/07/05 12:50:19;;;;;;;1.20;1.10;;;21.00;99.90;;;;;;5003498;28;20057;-41
2023/07/05 12:52:56;;;;;;;1.15;1.10;;;20.90;99.90;;;;;;5005253;28;20045;-40
2023/07/05 12:55:27;;;;;;;1.17;1.08;;;21.10;99.90;;;;;;5003126;28;20022;-40
2023/07/05 12:57:55;;;;;;;1.73;0.90;;;21.10;99.90;;;;;;5005676;28;20052;-42
2023/07/05 13:00:22;;;;;;;1.73;1.05;;;21.10;99.90;;;;;;5001002;28;20045;-37
2023/07/05 13:02:48;;;;;;;1.23;1.13;;;21.10;99.90;;;;;;5004484;28;20124;-39